sensor_id;sensor_type;location;lat;lon;timestamp;temperature;humidity
38325;DHT22;24126;52.672;13.622;2022-12-18T00:01:34;0.70;70.40
38325;DHT22;24126;52.672;13.622;2022-12-18T00:04:03;0.60;70.60
38325;DHT22;24126;52.672;13.622;2022-12-18T00:06:31;0.50;71.00
38325;DHT22;24126;52.672;13.622;2022-12-18T00:08:58;0.50;71.10
38325;DHT22;24126;52.672;13.622;2022-12-18T00:11:27;0.40;71.20
38325;DHT22;24126;52.672;13.622;2022-12-18T00:13:55;0.40;71.30
38325;DHT22;24126;52.672;13.622;2022-12-18T00:16:23;0.40;71.20
38325;DHT22;24126;52.672;13.622;2022-12-18T00:18:55;0.40;71.30
38325;DHT22;24126;52.672;13.622;2022-12-18T00:21:24;0.30;71.20
38325;DHT22;24126;52.672;13.622;2022-12-18T00:23:51;0.30;71.30
38325;DHT22;24126;52.672;13.622;2022-12-18T00:26:19;0.30;71.20
38325;DHT22;24126;52.672;13.622;2022-12-18T00:28:49;0.30;71.10
38325;DHT22;24126;52.672;13.622;2022-12-18T00:31:17;0.30;71.20
38325;DHT22;24126;52.672;13.622;2022-12-18T00:33:45;0.40;71.20
38325;DHT22;24126;52.672;13.622;2022-12-18T00:36:13;0.40;71.20
38325;DHT22;24126;52.672;13.622;2022-12-18T00:38:40;0.40;71.00
38325;DHT22;24126;52.672;13.622;2022-12-18T00:41:09;0.40;70.70
38325;DHT22;24126;52.672;13.622;2022-12-18T00:43:36;0.40;70.80
38325;DHT22;24126;52.672;13.622;2022-12-18T00:46:03;0.40;70.80
38325;DHT22;24126;52.672;13.622;2022-12-18T00:48:31;0.40;70.70
38325;DHT22;24126;52.672;13.622;2022-12-18T00:50:59;0.40;70.60
38325;DHT22;24126;52.672;13.622;2022-12-18T00:53:26;0.40;70.60
38325;DHT22;24126;52.672;13.622;2022-12-18T00:55:53;0.40;70.50
38325;DHT22;24126;52.672;13.622;2022-12-18T00:58:20;0.40;70.70
38325;DHT22;24126;52.672;13.622;2022-12-18T01:00:46;0.30;70.80
38325;DHT22;24126;52.672;13.622;2022-12-18T01:03:14;0.30;70.80
38325;DHT22;24126;52.672;13.622;2022-12-18T01:05:43;0.30;70.70
38325;DHT22;24126;52.672;13.622;2022-12-18T01:08:11;0.30;70.70
38325;DHT22;24126;52.672;13.622;2022-12-18T01:10:41;0.20;70.50
38325;DHT22;24126;52.672;13.622;2022-12-18T01:13:08;0.10;70.70
38325;DHT22;24126;52.672;13.622;2022-12-18T01:15:35;-0.10;71.00
38325;DHT22;24126;52.672;13.622;2022-12-18T01:18:02;-0.10;71.40
38325;DHT22;24126;52.672;13.622;2022-12-18T01:20:29;-0.10;71.60
38325;DHT22;24126;52.672;13.622;2022-12-18T01:22:56;-0.10;71.50
38325;DHT22;24126;52.672;13.622;2022-12-18T01:25:23;0.00;71.60
38325;DHT22;24126;52.672;13.622;2022-12-18T01:27:50;0.10;71.40
38325;DHT22;24126;52.672;13.622;2022-12-18T01:30:17;0.10;71.00
38325;DHT22;24126;52.672;13.622;2022-12-18T01:32:45;0.10;71.30
38325;DHT22;24126;52.672;13.622;2022-12-18T01:35:12;0.10;70.60
38325;DHT22;24126;52.672;13.622;2022-12-18T01:37:39;0.00;70.60
38325;DHT22;24126;52.672;13.622;2022-12-18T01:40:06;-0.10;70.90
38325;DHT22;24126;52.672;13.622;2022-12-18T01:42:33;-0.10;71.10
38325;DHT22;24126;52.672;13.622;2022-12-18T01:47:49;0.00;71.20
38325;DHT22;24126;52.672;13.622;2022-12-18T01:52:49;0.10;70.90
38325;DHT22;24126;52.672;13.622;2022-12-18T01:55:17;0.10;70.70
38325;DHT22;24126;52.672;13.622;2022-12-18T01:57:45;0.20;70.70
38325;DHT22;24126;52.672;13.622;2022-12-18T02:00:14;0.20;70.50
38325;DHT22;24126;52.672;13.622;2022-12-18T02:02:43;0.20;70.60
38325;DHT22;24126;52.672;13.622;2022-12-18T02:05:12;0.20;70.60
38325;DHT22;24126;52.672;13.622;2022-12-18T02:07:45;0.20;70.60
38325;DHT22;24126;52.672;13.622;2022-12-18T02:10:18;0.30;70.60
38325;DHT22;24126;52.672;13.622;2022-12-18T02:15:36;0.30;70.00
38325;DHT22;24126;52.672;13.622;2022-12-18T02:18:08;0.30;70.10
38325;DHT22;24126;52.672;13.622;2022-12-18T02:20:44;0.20;70.00
38325;DHT22;24126;52.672;13.622;2022-12-18T02:23:17;0.10;70.10
38325;DHT22;24126;52.672;13.622;2022-12-18T02:28:35;0.10;70.70
38325;DHT22;24126;52.672;13.622;2022-12-18T02:31:06;0.10;70.90
38325;DHT22;24126;52.672;13.622;2022-12-18T02:33:34;0.10;70.90
38325;DHT22;24126;52.672;13.622;2022-12-18T02:36:02;0.10;70.80
38325;DHT22;24126;52.672;13.622;2022-12-18T02:38:31;0.20;70.70
38325;DHT22;24126;52.672;13.622;2022-12-18T02:41:06;0.30;70.50
38325;DHT22;24126;52.672;13.622;2022-12-18T02:43:34;0.30;70.20
38325;DHT22;24126;52.672;13.622;2022-12-18T02:46:20;0.40;70.10
38325;DHT22;24126;52.672;13.622;2022-12-18T02:48:50;0.40;69.80
38325;DHT22;24126;52.672;13.622;2022-12-18T02:51:24;0.40;69.50
38325;DHT22;24126;52.672;13.622;2022-12-18T02:53:58;0.40;69.50
38325;DHT22;24126;52.672;13.622;2022-12-18T02:56:33;0.40;69.50
38325;DHT22;24126;52.672;13.622;2022-12-18T02:59:07;0.40;69.40
38325;DHT22;24126;52.672;13.622;2022-12-18T03:01:52;0.40;69.20
38325;DHT22;24126;52.672;13.622;2022-12-18T03:04:24;0.40;69.20
38325;DHT22;24126;52.672;13.622;2022-12-18T03:06:54;0.40;69.30
38325;DHT22;24126;52.672;13.622;2022-12-18T03:09:24;0.40;69.20
38325;DHT22;24126;52.672;13.622;2022-12-18T03:11:58;0.40;69.10
38325;DHT22;24126;52.672;13.622;2022-12-18T03:14:44;0.30;69.30
38325;DHT22;24126;52.672;13.622;2022-12-18T03:17:14;0.20;69.40
38325;DHT22;24126;52.672;13.622;2022-12-18T03:19:42;0.30;69.60
38325;DHT22;24126;52.672;13.622;2022-12-18T03:22:10;0.20;69.50
38325;DHT22;24126;52.672;13.622;2022-12-18T03:24:45;0.20;69.60
38325;DHT22;24126;52.672;13.622;2022-12-18T03:27:14;0.20;69.70
38325;DHT22;24126;52.672;13.622;2022-12-18T03:29:46;0.20;69.60
38325;DHT22;24126;52.672;13.622;2022-12-18T03:32:21;0.30;69.60
38325;DHT22;24126;52.672;13.622;2022-12-18T03:34:50;0.30;69.60
38325;DHT22;24126;52.672;13.622;2022-12-18T03:37:21;0.30;69.50
38325;DHT22;24126;52.672;13.622;2022-12-18T03:39:48;0.20;69.30
38325;DHT22;24126;52.672;13.622;2022-12-18T03:42:29;0.20;69.30
38325;DHT22;24126;52.672;13.622;2022-12-18T03:45:13;0.10;69.30
38325;DHT22;24126;52.672;13.622;2022-12-18T03:50:18;-0.20;69.60
38325;DHT22;24126;52.672;13.622;2022-12-18T03:53:00;-0.30;70.10
38325;DHT22;24126;52.672;13.622;2022-12-18T03:55:32;-0.30;70.40
38325;DHT22;24126;52.672;13.622;2022-12-18T03:58:03;-0.30;70.50
38325;DHT22;24126;52.672;13.622;2022-12-18T04:00:41;-0.30;70.40
38325;DHT22;24126;52.672;13.622;2022-12-18T04:03:10;-0.40;70.20
38325;DHT22;24126;52.672;13.622;2022-12-18T04:05:43;-0.40;70.20
38325;DHT22;24126;52.672;13.622;2022-12-18T04:08:13;-0.40;70.50
38325;DHT22;24126;52.672;13.622;2022-12-18T04:10:44;-0.40;70.70
38325;DHT22;24126;52.672;13.622;2022-12-18T04:13:11;-0.40;70.50
38325;DHT22;24126;52.672;13.622;2022-12-18T04:15:38;-0.30;70.40
38325;DHT22;24126;52.672;13.622;2022-12-18T04:18:10;-0.30;70.20
38325;DHT22;24126;52.672;13.622;2022-12-18T04:20:40;-0.30;70.10
38325;DHT22;24126;52.672;13.622;2022-12-18T04:23:08;-0.30;70.00
38325;DHT22;24126;52.672;13.622;2022-12-18T04:25:36;-0.40;70.00
38325;DHT22;24126;52.672;13.622;2022-12-18T04:28:13;-0.50;70.00
38325;DHT22;24126;52.672;13.622;2022-12-18T04:30:41;-0.40;70.10
38325;DHT22;24126;52.672;13.622;2022-12-18T04:33:12;-0.40;70.10
38325;DHT22;24126;52.672;13.622;2022-12-18T04:35:42;-0.40;70.00
38325;DHT22;24126;52.672;13.622;2022-12-18T04:38:09;-0.40;69.80
38325;DHT22;24126;52.672;13.622;2022-12-18T04:40:37;-0.50;69.60
38325;DHT22;24126;52.672;13.622;2022-12-18T04:43:11;-0.60;69.80
38325;DHT22;24126;52.672;13.622;2022-12-18T04:45:38;-0.70;70.10
38325;DHT22;24126;52.672;13.622;2022-12-18T04:48:05;-0.70;70.30
38325;DHT22;24126;52.672;13.622;2022-12-18T04:50:32;-0.80;70.40
38325;DHT22;24126;52.672;13.622;2022-12-18T04:52:59;-0.80;70.50
38325;DHT22;24126;52.672;13.622;2022-12-18T04:55:26;-0.90;70.50
38325;DHT22;24126;52.672;13.622;2022-12-18T04:57:53;-1.00;70.70
38325;DHT22;24126;52.672;13.622;2022-12-18T05:00:20;-1.10;71.00
38325;DHT22;24126;52.672;13.622;2022-12-18T05:02:47;-1.20;70.90
38325;DHT22;24126;52.672;13.622;2022-12-18T05:05:14;-1.30;71.30
38325;DHT22;24126;52.672;13.622;2022-12-18T05:07:41;-1.30;71.50
38325;DHT22;24126;52.672;13.622;2022-12-18T05:10:09;-1.30;71.80
38325;DHT22;24126;52.672;13.622;2022-12-18T05:12:36;-1.30;71.80
38325;DHT22;24126;52.672;13.622;2022-12-18T05:15:24;-1.20;71.80
38325;DHT22;24126;52.672;13.622;2022-12-18T05:17:51;-1.20;71.70
38325;DHT22;24126;52.672;13.622;2022-12-18T05:20:18;-1.20;71.70
38325;DHT22;24126;52.672;13.622;2022-12-18T05:22:45;-1.20;71.60
38325;DHT22;24126;52.672;13.622;2022-12-18T05:25:12;-1.10;71.50
38325;DHT22;24126;52.672;13.622;2022-12-18T05:27:39;-1.10;71.20
38325;DHT22;24126;52.672;13.622;2022-12-18T05:30:06;-1.10;71.20
38325;DHT22;24126;52.672;13.622;2022-12-18T05:32:34;-1.00;71.00
38325;DHT22;24126;52.672;13.622;2022-12-18T05:35:01;-1.10;71.00
38325;DHT22;24126;52.672;13.622;2022-12-18T05:37:29;-1.10;71.20
38325;DHT22;24126;52.672;13.622;2022-12-18T05:39:55;-1.00;71.20
38325;DHT22;24126;52.672;13.622;2022-12-18T05:42:23;-1.00;71.20
38325;DHT22;24126;52.672;13.622;2022-12-18T05:44:50;-1.00;71.10
38325;DHT22;24126;52.672;13.622;2022-12-18T05:47:17;-0.80;71.00
38325;DHT22;24126;52.672;13.622;2022-12-18T05:49:45;-0.80;70.70
38325;DHT22;24126;52.672;13.622;2022-12-18T05:52:12;-0.70;70.50
38325;DHT22;24126;52.672;13.622;2022-12-18T05:54:39;-0.70;70.20
38325;DHT22;24126;52.672;13.622;2022-12-18T05:57:06;-0.70;70.10
38325;DHT22;24126;52.672;13.622;2022-12-18T05:59:33;-0.70;69.90
38325;DHT22;24126;52.672;13.622;2022-12-18T06:02:00;-0.70;69.80
38325;DHT22;24126;52.672;13.622;2022-12-18T06:04:27;-0.70;69.70
38325;DHT22;24126;52.672;13.622;2022-12-18T06:06:57;-0.70;69.70
38325;DHT22;24126;52.672;13.622;2022-12-18T06:09:24;-0.80;69.80
38325;DHT22;24126;52.672;13.622;2022-12-18T06:11:52;-0.80;69.80
38325;DHT22;24126;52.672;13.622;2022-12-18T06:14:19;-0.80;69.90
38325;DHT22;24126;52.672;13.622;2022-12-18T06:16:46;-0.90;69.90
38325;DHT22;24126;52.672;13.622;2022-12-18T06:19:16;-0.90;70.00
38325;DHT22;24126;52.672;13.622;2022-12-18T06:21:43;-1.10;70.30
38325;DHT22;24126;52.672;13.622;2022-12-18T06:24:10;-1.10;70.60
38325;DHT22;24126;52.672;13.622;2022-12-18T06:26:38;-1.20;70.60
38325;DHT22;24126;52.672;13.622;2022-12-18T06:29:05;-1.20;70.70
38325;DHT22;24126;52.672;13.622;2022-12-18T06:31:32;-1.30;70.80
38325;DHT22;24126;52.672;13.622;2022-12-18T06:34:01;-1.30;71.00
38325;DHT22;24126;52.672;13.622;2022-12-18T06:36:31;-1.30;71.00
38325;DHT22;24126;52.672;13.622;2022-12-18T06:38:58;-1.40;71.00
38325;DHT22;24126;52.672;13.622;2022-12-18T06:41:26;-1.40;71.20
38325;DHT22;24126;52.672;13.622;2022-12-18T06:43:53;-1.40;71.20
38325;DHT22;24126;52.672;13.622;2022-12-18T06:46:20;-1.30;71.30
38325;DHT22;24126;52.672;13.622;2022-12-18T06:48:47;-1.30;71.20
38325;DHT22;24126;52.672;13.622;2022-12-18T06:51:19;-1.20;71.00
38325;DHT22;24126;52.672;13.622;2022-12-18T06:53:46;-1.20;70.90
38325;DHT22;24126;52.672;13.622;2022-12-18T06:56:13;-1.20;70.80
38325;DHT22;24126;52.672;13.622;2022-12-18T06:58:40;-1.20;70.60
38325;DHT22;24126;52.672;13.622;2022-12-18T07:01:09;-1.10;70.50
38325;DHT22;24126;52.672;13.622;2022-12-18T07:03:37;-1.10;70.60
38325;DHT22;24126;52.672;13.622;2022-12-18T07:06:04;-1.10;70.50
38325;DHT22;24126;52.672;13.622;2022-12-18T07:08:32;-1.10;70.60
38325;DHT22;24126;52.672;13.622;2022-12-18T07:10:59;-1.10;70.60
38325;DHT22;24126;52.672;13.622;2022-12-18T07:13:26;-1.10;70.40
38325;DHT22;24126;52.672;13.622;2022-12-18T07:15:53;-1.30;70.50
38325;DHT22;24126;52.672;13.622;2022-12-18T07:18:20;-1.30;70.70
38325;DHT22;24126;52.672;13.622;2022-12-18T07:20:47;-1.40;70.90
38325;DHT22;24126;52.672;13.622;2022-12-18T07:23:14;-1.40;71.20
38325;DHT22;24126;52.672;13.622;2022-12-18T07:25:41;-1.50;71.50
38325;DHT22;24126;52.672;13.622;2022-12-18T07:28:08;-1.50;71.80
38325;DHT22;24126;52.672;13.622;2022-12-18T07:30:36;-1.50;71.80
38325;DHT22;24126;52.672;13.622;2022-12-18T07:33:03;-1.40;71.80
38325;DHT22;24126;52.672;13.622;2022-12-18T07:35:32;-1.30;71.80
38325;DHT22;24126;52.672;13.622;2022-12-18T07:38:06;-1.20;71.70
38325;DHT22;24126;52.672;13.622;2022-12-18T07:40:33;-1.20;71.40
38325;DHT22;24126;52.672;13.622;2022-12-18T07:43:00;-1.20;71.20
38325;DHT22;24126;52.672;13.622;2022-12-18T07:45:28;-1.10;71.20
38325;DHT22;24126;52.672;13.622;2022-12-18T07:47:58;-1.10;71.00
38325;DHT22;24126;52.672;13.622;2022-12-18T07:50:25;-1.10;71.20
38325;DHT22;24126;52.672;13.622;2022-12-18T07:52:52;-1.10;71.10
38325;DHT22;24126;52.672;13.622;2022-12-18T07:55:19;-1.10;71.50
38325;DHT22;24126;52.672;13.622;2022-12-18T07:57:46;-1.10;71.40
38325;DHT22;24126;52.672;13.622;2022-12-18T08:00:13;-1.10;71.20
38325;DHT22;24126;52.672;13.622;2022-12-18T08:02:40;-1.10;71.20
38325;DHT22;24126;52.672;13.622;2022-12-18T08:05:07;-1.10;71.20
38325;DHT22;24126;52.672;13.622;2022-12-18T08:07:35;-1.10;71.10
38325;DHT22;24126;52.672;13.622;2022-12-18T08:10:02;-1.20;71.00
38325;DHT22;24126;52.672;13.622;2022-12-18T08:12:29;-1.10;71.20
38325;DHT22;24126;52.672;13.622;2022-12-18T08:14:56;-1.10;71.30
38325;DHT22;24126;52.672;13.622;2022-12-18T08:17:23;-1.10;71.30
38325;DHT22;24126;52.672;13.622;2022-12-18T08:19:50;-1.00;71.30
38325;DHT22;24126;52.672;13.622;2022-12-18T08:22:17;-1.10;71.00
38325;DHT22;24126;52.672;13.622;2022-12-18T08:24:44;-1.10;71.20
38325;DHT22;24126;52.672;13.622;2022-12-18T08:27:11;-1.10;71.90
38325;DHT22;24126;52.672;13.622;2022-12-18T08:29:38;-1.10;71.60
38325;DHT22;24126;52.672;13.622;2022-12-18T08:32:05;-1.00;71.60
38325;DHT22;24126;52.672;13.622;2022-12-18T08:34:32;-0.90;71.50
38325;DHT22;24126;52.672;13.622;2022-12-18T08:36:59;-0.90;71.30
38325;DHT22;24126;52.672;13.622;2022-12-18T08:39:26;-0.80;71.30
38325;DHT22;24126;52.672;13.622;2022-12-18T08:41:53;-0.80;71.00
38325;DHT22;24126;52.672;13.622;2022-12-18T08:44:38;-0.80;71.00
38325;DHT22;24126;52.672;13.622;2022-12-18T08:47:05;-0.80;71.30
38325;DHT22;24126;52.672;13.622;2022-12-18T08:49:33;-0.80;71.30
38325;DHT22;24126;52.672;13.622;2022-12-18T08:52:00;-0.70;71.40
38325;DHT22;24126;52.672;13.622;2022-12-18T08:54:28;-0.80;72.00
38325;DHT22;24126;52.672;13.622;2022-12-18T08:56:55;-0.80;71.30
38325;DHT22;24126;52.672;13.622;2022-12-18T08:59:22;-0.80;71.40
38325;DHT22;24126;52.672;13.622;2022-12-18T09:01:49;-0.70;71.60
38325;DHT22;24126;52.672;13.622;2022-12-18T09:04:17;-0.70;71.40
38325;DHT22;24126;52.672;13.622;2022-12-18T09:06:44;-0.60;71.40
38325;DHT22;24126;52.672;13.622;2022-12-18T09:09:11;-0.60;71.80
38325;DHT22;24126;52.672;13.622;2022-12-18T09:11:38;-0.50;71.90
38325;DHT22;24126;52.672;13.622;2022-12-18T09:14:05;-0.50;71.70
38325;DHT22;24126;52.672;13.622;2022-12-18T09:16:32;-0.40;71.50
38325;DHT22;24126;52.672;13.622;2022-12-18T09:19:01;-0.50;71.40
38325;DHT22;24126;52.672;13.622;2022-12-18T09:21:29;-0.40;71.50
38325;DHT22;24126;52.672;13.622;2022-12-18T09:23:56;-0.40;71.60
38325;DHT22;24126;52.672;13.622;2022-12-18T09:26:24;-0.40;71.60
38325;DHT22;24126;52.672;13.622;2022-12-18T09:28:52;-0.30;71.70
38325;DHT22;24126;52.672;13.622;2022-12-18T09:31:21;-0.20;71.60
38325;DHT22;24126;52.672;13.622;2022-12-18T09:33:48;-0.20;71.10
38325;DHT22;24126;52.672;13.622;2022-12-18T09:36:16;-0.20;71.20
38325;DHT22;24126;52.672;13.622;2022-12-18T09:38:43;-0.20;71.40
38325;DHT22;24126;52.672;13.622;2022-12-18T09:41:28;-0.20;71.50
38325;DHT22;24126;52.672;13.622;2022-12-18T09:44:00;-0.10;71.50
38325;DHT22;24126;52.672;13.622;2022-12-18T09:46:29;-0.10;71.40
38325;DHT22;24126;52.672;13.622;2022-12-18T09:48:59;-0.10;71.30
38325;DHT22;24126;52.672;13.622;2022-12-18T09:51:42;-0.10;71.60
38325;DHT22;24126;52.672;13.622;2022-12-18T09:54:11;-0.10;71.80
38325;DHT22;24126;52.672;13.622;2022-12-18T09:56:41;-0.20;71.80
38325;DHT22;24126;52.672;13.622;2022-12-18T09:59:18;-0.10;71.80
38325;DHT22;24126;52.672;13.622;2022-12-18T10:01:46;-0.20;71.90
38325;DHT22;24126;52.672;13.622;2022-12-18T10:04:13;-0.20;72.30
38325;DHT22;24126;52.672;13.622;2022-12-18T10:06:43;-0.20;72.10
38325;DHT22;24126;52.672;13.622;2022-12-18T10:09:28;-0.20;72.30
38325;DHT22;24126;52.672;13.622;2022-12-18T10:14:52;-0.10;72.40
38325;DHT22;24126;52.672;13.622;2022-12-18T10:27:43;0.20;72.00
38325;DHT22;24126;52.672;13.622;2022-12-18T10:30:14;0.20;72.00
38325;DHT22;24126;52.672;13.622;2022-12-18T10:32:41;0.20;72.20
38325;DHT22;24126;52.672;13.622;2022-12-18T10:35:12;0.20;72.40
38325;DHT22;24126;52.672;13.622;2022-12-18T10:37:58;0.20;72.50
38325;DHT22;24126;52.672;13.622;2022-12-18T10:40:25;0.30;72.30
38325;DHT22;24126;52.672;13.622;2022-12-18T10:43:09;0.30;72.50
38325;DHT22;24126;52.672;13.622;2022-12-18T10:45:37;0.40;72.50
38325;DHT22;24126;52.672;13.622;2022-12-18T10:48:05;0.40;72.30
38325;DHT22;24126;52.672;13.622;2022-12-18T10:50:45;0.40;72.40
38325;DHT22;24126;52.672;13.622;2022-12-18T10:53:13;0.40;72.40
38325;DHT22;24126;52.672;13.622;2022-12-18T10:55:44;0.40;72.50
38325;DHT22;24126;52.672;13.622;2022-12-18T10:58:13;0.40;72.50
38325;DHT22;24126;52.672;13.622;2022-12-18T11:00:42;0.40;72.50
38325;DHT22;24126;52.672;13.622;2022-12-18T11:03:29;0.40;72.50
38325;DHT22;24126;52.672;13.622;2022-12-18T11:08:39;0.40;73.20
38325;DHT22;24126;52.672;13.622;2022-12-18T11:11:20;0.40;73.20
38325;DHT22;24126;52.672;13.622;2022-12-18T11:14:04;0.40;73.40
38325;DHT22;24126;52.672;13.622;2022-12-18T11:16:36;0.50;73.70
38325;DHT22;24126;52.672;13.622;2022-12-18T11:19:09;0.60;73.60
38325;DHT22;24126;52.672;13.622;2022-12-18T11:21:42;0.80;73.40
38325;DHT22;24126;52.672;13.622;2022-12-18T11:24:18;0.90;72.90
38325;DHT22;24126;52.672;13.622;2022-12-18T11:26:46;0.90;72.20
38325;DHT22;24126;52.672;13.622;2022-12-18T11:29:17;0.90;72.20
38325;DHT22;24126;52.672;13.622;2022-12-18T11:31:45;0.80;72.30
38325;DHT22;24126;52.672;13.622;2022-12-18T11:36:48;0.70;72.50
38325;DHT22;24126;52.672;13.622;2022-12-18T11:39:17;0.70;72.80
38325;DHT22;24126;52.672;13.622;2022-12-18T11:44:44;0.70;73.40
38325;DHT22;24126;52.672;13.622;2022-12-18T11:47:35;0.70;72.80
38325;DHT22;24126;52.672;13.622;2022-12-18T11:50:05;0.70;72.90
38325;DHT22;24126;52.672;13.622;2022-12-18T11:52:38;0.70;72.70
38325;DHT22;24126;52.672;13.622;2022-12-18T11:55:12;0.70;72.40
38325;DHT22;24126;52.672;13.622;2022-12-18T11:57:50;0.70;72.70
38325;DHT22;24126;52.672;13.622;2022-12-18T12:00:21;0.60;73.20
38325;DHT22;24126;52.672;13.622;2022-12-18T12:10:58;0.80;73.20
38325;DHT22;24126;52.672;13.622;2022-12-18T12:16:18;0.80;73.00
38325;DHT22;24126;52.672;13.622;2022-12-18T12:19:15;0.90;73.10
38325;DHT22;24126;52.672;13.622;2022-12-18T12:21:52;0.90;72.90
38325;DHT22;24126;52.672;13.622;2022-12-18T12:24:43;1.00;72.80
38325;DHT22;24126;52.672;13.622;2022-12-18T12:27:20;1.10;72.90
38325;DHT22;24126;52.672;13.622;2022-12-18T12:32:29;1.20;72.60
38325;DHT22;24126;52.672;13.622;2022-12-18T12:40:14;1.30;72.30
38325;DHT22;24126;52.672;13.622;2022-12-18T12:42:57;1.40;72.10
38325;DHT22;24126;52.672;13.622;2022-12-18T12:48:17;1.30;72.00
38325;DHT22;24126;52.672;13.622;2022-12-18T12:50:45;1.20;72.20
38325;DHT22;24126;52.672;13.622;2022-12-18T12:53:16;1.20;72.40
38325;DHT22;24126;52.672;13.622;2022-12-18T12:55:46;1.20;72.20
38325;DHT22;24126;52.672;13.622;2022-12-18T12:58:19;1.30;71.90
38325;DHT22;24126;52.672;13.622;2022-12-18T13:00:59;1.20;71.50
38325;DHT22;24126;52.672;13.622;2022-12-18T13:09:00;1.10;71.70
38325;DHT22;24126;52.672;13.622;2022-12-18T13:11:28;1.10;71.70
38325;DHT22;24126;52.672;13.622;2022-12-18T13:14:24;1.00;71.80
38325;DHT22;24126;52.672;13.622;2022-12-18T13:17:09;1.00;72.00
38325;DHT22;24126;52.672;13.622;2022-12-18T13:19:39;1.00;72.20
38325;DHT22;24126;52.672;13.622;2022-12-18T13:22:19;0.90;72.10
38325;DHT22;24126;52.672;13.622;2022-12-18T13:24:47;0.90;72.10
38325;DHT22;24126;52.672;13.622;2022-12-18T13:30:00;0.90;72.10
38325;DHT22;24126;52.672;13.622;2022-12-18T13:32:27;1.00;72.40
38325;DHT22;24126;52.672;13.622;2022-12-18T13:37:41;0.90;72.20
38325;DHT22;24126;52.672;13.622;2022-12-18T13:42:58;0.90;72.10
38325;DHT22;24126;52.672;13.622;2022-12-18T13:45:42;0.90;72.40
38325;DHT22;24126;52.672;13.622;2022-12-18T13:48:21;0.90;72.40
38325;DHT22;24126;52.672;13.622;2022-12-18T13:50:59;0.90;72.50
38325;DHT22;24126;52.672;13.622;2022-12-18T13:53:29;0.90;72.50
38325;DHT22;24126;52.672;13.622;2022-12-18T13:55:57;0.80;72.50
38325;DHT22;24126;52.672;13.622;2022-12-18T13:58:24;0.80;72.40
38325;DHT22;24126;52.672;13.622;2022-12-18T14:00:51;0.80;73.10
38325;DHT22;24126;52.672;13.622;2022-12-18T14:03:21;0.80;72.50
38325;DHT22;24126;52.672;13.622;2022-12-18T14:05:52;0.70;72.60
38325;DHT22;24126;52.672;13.622;2022-12-18T14:08:20;0.70;72.90
38325;DHT22;24126;52.672;13.622;2022-12-18T14:10:52;0.70;73.00
38325;DHT22;24126;52.672;13.622;2022-12-18T14:13:21;0.70;73.00
38325;DHT22;24126;52.672;13.622;2022-12-18T14:15:50;0.80;72.90
38325;DHT22;24126;52.672;13.622;2022-12-18T14:18:19;0.80;73.20
38325;DHT22;24126;52.672;13.622;2022-12-18T14:20:48;0.80;73.20
38325;DHT22;24126;52.672;13.622;2022-12-18T14:23:29;0.80;72.90
38325;DHT22;24126;52.672;13.622;2022-12-18T14:25:56;0.70;72.80
38325;DHT22;24126;52.672;13.622;2022-12-18T14:28:23;0.70;73.10
38325;DHT22;24126;52.672;13.622;2022-12-18T14:30:52;0.60;73.10
38325;DHT22;24126;52.672;13.622;2022-12-18T14:33:21;0.60;73.30
38325;DHT22;24126;52.672;13.622;2022-12-18T14:35:58;0.60;73.40
38325;DHT22;24126;52.672;13.622;2022-12-18T14:38:36;0.60;73.60
38325;DHT22;24126;52.672;13.622;2022-12-18T14:43:35;0.60;73.70
38325;DHT22;24126;52.672;13.622;2022-12-18T14:46:03;0.60;73.90
38325;DHT22;24126;52.672;13.622;2022-12-18T14:56:20;0.80;73.90
38325;DHT22;24126;52.672;13.622;2022-12-18T14:58:49;0.80;73.80
38325;DHT22;24126;52.672;13.622;2022-12-18T15:03:53;0.90;73.40
38325;DHT22;24126;52.672;13.622;2022-12-18T15:06:39;0.80;73.10
38325;DHT22;24126;52.672;13.622;2022-12-18T15:09:23;0.70;73.50
38325;DHT22;24126;52.672;13.622;2022-12-18T15:11:55;0.70;73.60
38325;DHT22;24126;52.672;13.622;2022-12-18T15:14:30;0.60;73.80
38325;DHT22;24126;52.672;13.622;2022-12-18T15:16:58;0.60;74.00
38325;DHT22;24126;52.672;13.622;2022-12-18T15:19:32;0.60;74.30
38325;DHT22;24126;52.672;13.622;2022-12-18T15:21:59;0.50;74.30
38325;DHT22;24126;52.672;13.622;2022-12-18T15:24:27;0.60;74.60
38325;DHT22;24126;52.672;13.622;2022-12-18T15:26:56;0.60;74.50
38325;DHT22;24126;52.672;13.622;2022-12-18T15:29:24;0.70;74.40
38325;DHT22;24126;52.672;13.622;2022-12-18T15:31:58;0.70;74.00
38325;DHT22;24126;52.672;13.622;2022-12-18T15:34:25;0.80;73.80
38325;DHT22;24126;52.672;13.622;2022-12-18T15:36:53;0.80;73.80
38325;DHT22;24126;52.672;13.622;2022-12-18T15:39:20;0.80;73.70
38325;DHT22;24126;52.672;13.622;2022-12-18T15:41:47;0.70;73.70
38325;DHT22;24126;52.672;13.622;2022-12-18T15:44:32;0.70;73.80
38325;DHT22;24126;52.672;13.622;2022-12-18T15:46:59;0.80;73.80
38325;DHT22;24126;52.672;13.622;2022-12-18T15:49:26;0.80;73.50
38325;DHT22;24126;52.672;13.622;2022-12-18T15:51:56;0.90;73.30
38325;DHT22;24126;52.672;13.622;2022-12-18T15:54:24;0.80;73.20
38325;DHT22;24126;52.672;13.622;2022-12-18T15:57:08;0.80;73.20
38325;DHT22;24126;52.672;13.622;2022-12-18T15:59:51;0.80;73.20
38325;DHT22;24126;52.672;13.622;2022-12-18T16:02:20;0.80;73.10
38325;DHT22;24126;52.672;13.622;2022-12-18T16:04:48;0.70;73.30
38325;DHT22;24126;52.672;13.622;2022-12-18T16:07:15;0.60;73.60
38325;DHT22;24126;52.672;13.622;2022-12-18T16:09:42;0.60;74.00
38325;DHT22;24126;52.672;13.622;2022-12-18T16:12:20;0.60;74.00
38325;DHT22;24126;52.672;13.622;2022-12-18T16:14:47;0.60;73.80
38325;DHT22;24126;52.672;13.622;2022-12-18T16:17:14;0.60;73.90
38325;DHT22;24126;52.672;13.622;2022-12-18T16:19:41;0.60;74.00
38325;DHT22;24126;52.672;13.622;2022-12-18T16:22:15;0.60;74.10
38325;DHT22;24126;52.672;13.622;2022-12-18T16:24:44;0.60;74.00
38325;DHT22;24126;52.672;13.622;2022-12-18T16:27:11;0.70;74.00
38325;DHT22;24126;52.672;13.622;2022-12-18T16:29:38;0.70;73.70
38325;DHT22;24126;52.672;13.622;2022-12-18T16:32:05;0.80;73.70
38325;DHT22;24126;52.672;13.622;2022-12-18T16:34:33;0.80;73.50
38325;DHT22;24126;52.672;13.622;2022-12-18T16:37:01;0.90;73.40
38325;DHT22;24126;52.672;13.622;2022-12-18T16:39:28;0.80;73.20
38325;DHT22;24126;52.672;13.622;2022-12-18T16:41:56;0.80;73.10
38325;DHT22;24126;52.672;13.622;2022-12-18T16:44:23;0.80;73.20
38325;DHT22;24126;52.672;13.622;2022-12-18T16:46:50;0.70;73.50
38325;DHT22;24126;52.672;13.622;2022-12-18T16:49:17;0.70;73.40
38325;DHT22;24126;52.672;13.622;2022-12-18T16:51:45;0.70;73.40
38325;DHT22;24126;52.672;13.622;2022-12-18T16:54:12;0.60;73.60
38325;DHT22;24126;52.672;13.622;2022-12-18T16:56:40;0.60;74.00
38325;DHT22;24126;52.672;13.622;2022-12-18T16:59:09;0.60;73.80
38325;DHT22;24126;52.672;13.622;2022-12-18T17:01:37;0.60;73.80
38325;DHT22;24126;52.672;13.622;2022-12-18T17:04:06;0.60;73.80
38325;DHT22;24126;52.672;13.622;2022-12-18T17:06:35;0.60;73.90